sensor_id;sensor_type;location;lat;lon;timestamp;P1;durP1;ratioP1;P2;durP2;ratioP2
28774;SDS011;15926;51.348;6.596;2023-10-31T05:04:55;12.25;;;9.20;;
28774;SDS011;15926;51.348;6.596;2023-10-31T05:07:23;17.98;;;9.98;;
28774;SDS011;15926;51.348;6.596;2023-10-31T05:09:49;15.40;;;8.63;;
28774;SDS011;15926;51.348;6.596;2023-10-31T05:12:15;14.68;;;10.43;;
28774;SDS011;15926;51.348;6.596;2023-10-31T05:14:41;12.57;;;9.02;;
28774;SDS011;15926;51.348;6.596;2023-10-31T05:17:07;13.20;;;9.50;;
28774;SDS011;15926;51.348;6.596;2023-10-31T05:19:33;12.15;;;8.70;;
28774;SDS011;15926;51.348;6.596;2023-10-31T05:21:59;17.98;;;9.82;;
28774;SDS011;15926;51.348;6.596;2023-10-31T05:24:25;15.98;;;9.70;;
28774;SDS011;15926;51.348;6.596;2023-10-31T05:26:51;13.88;;;9.50;;
28774;SDS011;15926;51.348;6.596;2023-10-31T05:29:17;13.80;;;8.93;;
28774;SDS011;15926;51.348;6.596;2023-10-31T05:31:43;16.52;;;10.48;;
28774;SDS011;15926;51.348;6.596;2023-10-31T05:34:10;13.45;;;9.35;;
28774;SDS011;15926;51.348;6.596;2023-10-31T05:36:36;15.77;;;9.63;;
28774;SDS011;15926;51.348;6.596;2023-10-31T05:39:02;16.83;;;10.40;;
28774;SDS011;15926;51.348;6.596;2023-10-31T05:41:28;14.93;;;11.43;;
28774;SDS011;15926;51.348;6.596;2023-10-31T05:43:54;16.02;;;10.57;;
28774;SDS011;15926;51.348;6.596;2023-10-31T05:46:19;16.27;;;10.15;;
28774;SDS011;15926;51.348;6.596;2023-10-31T05:48:46;16.60;;;10.40;;
28774;SDS011;15926;51.348;6.596;2023-10-31T05:51:13;12.98;;;9.32;;
28774;SDS011;15926;51.348;6.596;2023-10-31T05:53:39;22.98;;;10.23;;
28774;SDS011;15926;51.348;6.596;2023-10-31T05:56:06;20.60;;;12.35;;
28774;SDS011;15926;51.348;6.596;2023-10-31T05:58:32;17.73;;;11.38;;
28774;SDS011;15926;51.348;6.596;2023-10-31T06:00:58;14.68;;;9.88;;
28774;SDS011;15926;51.348;6.596;2023-10-31T06:03:24;18.02;;;11.35;;
28774;SDS011;15926;51.348;6.596;2023-10-31T06:05:50;15.88;;;10.75;;
28774;SDS011;15926;51.348;6.596;2023-10-31T06:08:16;15.38;;;10.85;;
28774;SDS011;15926;51.348;6.596;2023-10-31T06:10:42;14.60;;;10.45;;
28774;SDS011;15926;51.348;6.596;2023-10-31T06:13:08;14.30;;;10.07;;
28774;SDS011;15926;51.348;6.596;2023-10-31T06:15:34;14.50;;;11.02;;
28774;SDS011;15926;51.348;6.596;2023-10-31T06:18:00;14.27;;;10.27;;
28774;SDS011;15926;51.348;6.596;2023-10-31T06:20:27;15.32;;;11.50;;
28774;SDS011;15926;51.348;6.596;2023-10-31T06:22:53;13.63;;;11.23;;
28774;SDS011;15926;51.348;6.596;2023-10-31T06:25:19;17.25;;;11.15;;
28774;SDS011;15926;51.348;6.596;2023-10-31T06:27:45;14.93;;;10.50;;
28774;SDS011;15926;51.348;6.596;2023-10-31T06:30:11;13.15;;;9.95;;
28774;SDS011;15926;51.348;6.596;2023-10-31T06:32:38;16.55;;;11.73;;
28774;SDS011;15926;51.348;6.596;2023-10-31T06:35:06;15.70;;;11.23;;
28774;SDS011;15926;51.348;6.596;2023-10-31T06:37:32;20.15;;;13.40;;
28774;SDS011;15926;51.348;6.596;2023-10-31T06:39:58;18.48;;;12.93;;
28774;SDS011;15926;51.348;6.596;2023-10-31T06:42:24;18.27;;;13.02;;
28774;SDS011;15926;51.348;6.596;2023-10-31T06:44:50;19.67;;;13.02;;
28774;SDS011;15926;51.348;6.596;2023-10-31T06:47:16;16.90;;;12.02;;
28774;SDS011;15926;51.348;6.596;2023-10-31T06:49:42;18.80;;;13.13;;
28774;SDS011;15926;51.348;6.596;2023-10-31T06:52:08;21.45;;;13.60;;
28774;SDS011;15926;51.348;6.596;2023-10-31T06:54:33;23.58;;;13.63;;
28774;SDS011;15926;51.348;6.596;2023-10-31T06:57:00;22.27;;;13.68;;
28774;SDS011;15926;51.348;6.596;2023-10-31T06:59:29;17.65;;;12.25;;
28774;SDS011;15926;51.348;6.596;2023-10-31T07:01:56;17.15;;;13.10;;
28774;SDS011;15926;51.348;6.596;2023-10-31T07:04:22;20.42;;;14.65;;
28774;SDS011;15926;51.348;6.596;2023-10-31T07:06:48;17.23;;;14.80;;
28774;SDS011;15926;51.348;6.596;2023-10-31T07:09:14;20.45;;;14.68;;
28774;SDS011;15926;51.348;6.596;2023-10-31T07:11:40;17.95;;;13.38;;
28774;SDS011;15926;51.348;6.596;2023-10-31T07:14:06;21.60;;;13.95;;
28774;SDS011;15926;51.348;6.596;2023-10-31T07:16:32;22.35;;;13.75;;
28774;SDS011;15926;51.348;6.596;2023-10-31T07:18:58;20.55;;;13.30;;
28774;SDS011;15926;51.348;6.596;2023-10-31T07:21:24;17.90;;;12.85;;
28774;SDS011;15926;51.348;6.596;2023-10-31T07:23:51;17.65;;;13.07;;
28774;SDS011;15926;51.348;6.596;2023-10-31T07:26:17;17.90;;;12.93;;
28774;SDS011;15926;51.348;6.596;2023-10-31T07:28:43;15.95;;;12.73;;
28774;SDS011;15926;51.348;6.596;2023-10-31T07:31:09;16.73;;;12.95;;
28774;SDS011;15926;51.348;6.596;2023-10-31T07:33:35;17.58;;;12.65;;
28774;SDS011;15926;51.348;6.596;2023-10-31T07:36:01;16.33;;;11.25;;
28774;SDS011;15926;51.348;6.596;2023-10-31T07:38:27;18.48;;;12.82;;
28774;SDS011;15926;51.348;6.596;2023-10-31T07:40:53;16.50;;;11.40;;
28774;SDS011;15926;51.348;6.596;2023-10-31T07:43:19;17.35;;;12.80;;
28774;SDS011;15926;51.348;6.596;2023-10-31T07:45:45;17.15;;;12.55;;
28774;SDS011;15926;51.348;6.596;2023-10-31T07:48:11;16.52;;;11.70;;
28774;SDS011;15926;51.348;6.596;2023-10-31T07:50:37;22.35;;;12.90;;
28774;SDS011;15926;51.348;6.596;2023-10-31T07:53:03;16.17;;;12.43;;
28774;SDS011;15926;51.348;6.596;2023-10-31T07:55:29;14.70;;;11.02;;
28774;SDS011;15926;51.348;6.596;2023-10-31T07:57:55;14.23;;;10.48;;
28774;SDS011;15926;51.348;6.596;2023-10-31T08:00:21;12.20;;;10.35;;
28774;SDS011;15926;51.348;6.596;2023-10-31T08:02:47;12.05;;;10.00;;
28774;SDS011;15926;51.348;6.596;2023-10-31T08:05:14;14.55;;;9.85;;
28774;SDS011;15926;51.348;6.596;2023-10-31T08:07:40;13.68;;;9.32;;
28774;SDS011;15926;51.348;6.596;2023-10-31T08:10:06;9.38;;;8.30;;
28774;SDS011;15926;51.348;6.596;2023-10-31T08:12:32;9.38;;;8.48;;
28774;SDS011;15926;51.348;6.596;2023-10-31T08:14:58;7.22;;;6.60;;
28774;SDS011;15926;51.348;6.596;2023-10-31T08:17:25;8.38;;;7.57;;
28774;SDS011;15926;51.348;6.596;2023-10-31T08:19:51;7.85;;;7.05;;
28774;SDS011;15926;51.348;6.596;2023-10-31T08:22:17;7.70;;;6.93;;
28774;SDS011;15926;51.348;6.596;2023-10-31T08:24:43;7.38;;;6.68;;
28774;SDS011;15926;51.348;6.596;2023-10-31T08:27:09;6.90;;;6.30;;
28774;SDS011;15926;51.348;6.596;2023-10-31T08:29:36;6.35;;;5.82;;
28774;SDS011;15926;51.348;6.596;2023-10-31T08:32:02;6.65;;;5.55;;
28774;SDS011;15926;51.348;6.596;2023-10-31T08:34:28;11.35;;;6.43;;
28774;SDS011;15926;51.348;6.596;2023-10-31T08:36:54;6.47;;;5.88;;
28774;SDS011;15926;51.348;6.596;2023-10-31T08:39:21;8.70;;;5.95;;
28774;SDS011;15926;51.348;6.596;2023-10-31T08:44:17;6.85;;;5.32;;
28774;SDS011;15926;51.348;6.596;2023-10-31T08:46:43;9.10;;;6.25;;
28774;SDS011;15926;51.348;6.596;2023-10-31T08:49:09;7.05;;;5.80;;
28774;SDS011;15926;51.348;6.596;2023-10-31T08:51:35;8.80;;;6.05;;
28774;SDS011;15926;51.348;6.596;2023-10-31T08:54:01;7.72;;;6.20;;
28774;SDS011;15926;51.348;6.596;2023-10-31T08:56:26;6.55;;;5.95;;
28774;SDS011;15926;51.348;6.596;2023-10-31T08:58:53;9.82;;;6.40;;
28774;SDS011;15926;51.348;6.596;2023-10-31T09:01:19;8.75;;;6.70;;
28774;SDS011;15926;51.348;6.596;2023-10-31T09:03:45;5.50;;;5.10;;
28774;SDS011;15926;51.348;6.596;2023-10-31T09:06:11;6.90;;;6.20;;
28774;SDS011;15926;51.348;6.596;2023-10-31T09:08:37;7.25;;;6.55;;
28774;SDS011;15926;51.348;6.596;2023-10-31T09:11:04;7.60;;;6.00;;
28774;SDS011;15926;51.348;6.596;2023-10-31T09:13:30;7.35;;;6.60;;
28774;SDS011;15926;51.348;6.596;2023-10-31T09:15:59;7.00;;;6.30;;
28774;SDS011;15926;51.348;6.596;2023-10-31T09:18:25;9.48;;;6.28;;
28774;SDS011;15926;51.348;6.596;2023-10-31T09:20:52;11.38;;;7.22;;
28774;SDS011;15926;51.348;6.596;2023-10-31T09:23:18;8.10;;;6.57;;
28774;SDS011;15926;51.348;6.596;2023-10-31T09:25:45;7.68;;;6.68;;
28774;SDS011;15926;51.348;6.596;2023-10-31T09:28:11;10.68;;;8.23;;
28774;SDS011;15926;51.348;6.596;2023-10-31T09:30:37;7.43;;;6.70;;
28774;SDS011;15926;51.348;6.596;2023-10-31T09:33:03;8.07;;;6.68;;
28774;SDS011;15926;51.348;6.596;2023-10-31T09:35:29;12.00;;;7.68;;
28774;SDS011;15926;51.348;6.596;2023-10-31T09:37:55;9.48;;;7.38;;
28774;SDS011;15926;51.348;6.596;2023-10-31T09:40:22;7.88;;;6.55;;
28774;SDS011;15926;51.348;6.596;2023-10-31T09:42:48;8.98;;;6.95;;
28774;SDS011;15926;51.348;6.596;2023-10-31T09:45:15;8.15;;;7.28;;
28774;SDS011;15926;51.348;6.596;2023-10-31T09:47:41;8.95;;;6.88;;
28774;SDS011;15926;51.348;6.596;2023-10-31T09:50:08;10.45;;;7.25;;
28774;SDS011;15926;51.348;6.596;2023-10-31T09:52:37;11.77;;;6.93;;
28774;SDS011;15926;51.348;6.596;2023-10-31T09:55:03;7.40;;;6.70;;
28774;SDS011;15926;51.348;6.596;2023-10-31T09:57:30;7.88;;;6.15;;
28774;SDS011;15926;51.348;6.596;2023-10-31T09:59:56;7.00;;;6.05;;
28774;SDS011;15926;51.348;6.596;2023-10-31T10:02:22;6.80;;;6.20;;
28774;SDS011;15926;51.348;6.596;2023-10-31T10:04:48;6.25;;;5.65;;
28774;SDS011;15926;51.348;6.596;2023-10-31T10:07:15;5.93;;;5.38;;
28774;SDS011;15926;51.348;6.596;2023-10-31T10:09:42;6.65;;;5.43;;
28774;SDS011;15926;51.348;6.596;2023-10-31T10:12:10;6.07;;;5.57;;
28774;SDS011;15926;51.348;6.596;2023-10-31T10:14:37;6.40;;;5.40;;
28774;SDS011;15926;51.348;6.596;2023-10-31T10:17:13;8.18;;;5.35;;
28774;SDS011;15926;51.348;6.596;2023-10-31T10:19:40;6.10;;;5.15;;
28774;SDS011;15926;51.348;6.596;2023-10-31T10:22:06;4.75;;;4.45;;
28774;SDS011;15926;51.348;6.596;2023-10-31T10:24:32;5.25;;;4.00;;
28774;SDS011;15926;51.348;6.596;2023-10-31T10:26:58;4.65;;;4.32;;
28774;SDS011;15926;51.348;6.596;2023-10-31T10:29:24;5.63;;;4.68;;
28774;SDS011;15926;51.348;6.596;2023-10-31T10:31:51;4.50;;;4.20;;
28774;SDS011;15926;51.348;6.596;2023-10-31T10:34:17;5.07;;;4.57;;
28774;SDS011;15926;51.348;6.596;2023-10-31T10:36:46;6.15;;;4.00;;
28774;SDS011;15926;51.348;6.596;2023-10-31T10:39:12;13.18;;;4.25;;
28774;SDS011;15926;51.348;6.596;2023-10-31T10:41:40;5.65;;;4.05;;
28774;SDS011;15926;51.348;6.596;2023-10-31T10:44:08;4.22;;;3.90;;
28774;SDS011;15926;51.348;6.596;2023-10-31T10:46:35;4.32;;;3.78;;
28774;SDS011;15926;51.348;6.596;2023-10-31T10:49:05;6.18;;;3.50;;
28774;SDS011;15926;51.348;6.596;2023-10-31T10:51:50;7.05;;;3.35;;
28774;SDS011;15926;51.348;6.596;2023-10-31T10:54:20;7.03;;;3.35;;
28774;SDS011;15926;51.348;6.596;2023-10-31T10:56:53;7.95;;;3.63;;
28774;SDS011;15926;51.348;6.596;2023-10-31T10:59:26;6.05;;;3.00;;
28774;SDS011;15926;51.348;6.596;2023-10-31T11:01:53;3.22;;;2.88;;
28774;SDS011;15926;51.348;6.596;2023-10-31T11:04:20;6.32;;;2.72;;
28774;SDS011;15926;51.348;6.596;2023-10-31T11:06:46;4.25;;;3.28;;
28774;SDS011;15926;51.348;6.596;2023-10-31T11:09:13;3.67;;;2.95;;
28774;SDS011;15926;51.348;6.596;2023-10-31T11:11:40;5.32;;;2.92;;
28774;SDS011;15926;51.348;6.596;2023-10-31T11:14:06;3.55;;;2.42;;
28774;SDS011;15926;51.348;6.596;2023-10-31T11:16:40;2.65;;;1.92;;
28774;SDS011;15926;51.348;6.596;2023-10-31T11:19:07;3.63;;;2.35;;
28774;SDS011;15926;51.348;6.596;2023-10-31T11:21:34;3.58;;;2.20;;
28774;SDS011;15926;51.348;6.596;2023-10-31T11:24:00;4.63;;;2.40;;
28774;SDS011;15926;51.348;6.596;2023-10-31T11:26:29;3.67;;;2.42;;
28774;SDS011;15926;51.348;6.596;2023-10-31T11:29:03;1.90;;;1.70;;
28774;SDS011;15926;51.348;6.596;2023-10-31T11:31:30;4.13;;;1.75;;
28774;SDS011;15926;51.348;6.596;2023-10-31T11:33:56;9.88;;;2.20;;
28774;SDS011;15926;51.348;6.596;2023-10-31T11:36:22;3.17;;;1.70;;
28774;SDS011;15926;51.348;6.596;2023-10-31T11:38:48;3.88;;;1.70;;
28774;SDS011;15926;51.348;6.596;2023-10-31T11:41:14;4.72;;;2.20;;
28774;SDS011;15926;51.348;6.596;2023-10-31T11:46:19;3.42;;;2.17;;
28774;SDS011;15926;51.348;6.596;2023-10-31T11:51:17;2.25;;;1.60;;
28774;SDS011;15926;51.348;6.596;2023-10-31T11:53:44;5.40;;;1.70;;
28774;SDS011;15926;51.348;6.596;2023-10-31T11:56:10;2.40;;;2.20;;
28774;SDS011;15926;51.348;6.596;2023-10-31T11:58:36;2.22;;;1.73;;
28774;SDS011;15926;51.348;6.596;2023-10-31T12:01:06;2.20;;;1.92;;
28774;SDS011;15926;51.348;6.596;2023-10-31T12:03:40;2.53;;;1.60;;
28774;SDS011;15926;51.348;6.596;2023-10-31T12:06:07;5.38;;;1.98;;
28774;SDS011;15926;51.348;6.596;2023-10-31T12:08:36;3.35;;;1.80;;
28774;SDS011;15926;51.348;6.596;2023-10-31T12:11:03;4.47;;;1.60;;
28774;SDS011;15926;51.348;6.596;2023-10-31T12:13:29;1.90;;;1.52;;
28774;SDS011;15926;51.348;6.596;2023-10-31T12:15:55;2.80;;;1.30;;
28774;SDS011;15926;51.348;6.596;2023-10-31T12:18:23;4.78;;;1.48;;
28774;SDS011;15926;51.348;6.596;2023-10-31T12:20:52;2.25;;;1.27;;
28774;SDS011;15926;51.348;6.596;2023-10-31T12:23:18;2.05;;;1.30;;
28774;SDS011;15926;51.348;6.596;2023-10-31T12:25:48;1.77;;;1.55;;
28774;SDS011;15926;51.348;6.596;2023-10-31T12:28:17;2.95;;;1.42;;
28774;SDS011;15926;51.348;6.596;2023-10-31T12:30:48;1.85;;;1.25;;
28774;SDS011;15926;51.348;6.596;2023-10-31T12:33:14;3.35;;;1.50;;
28774;SDS011;15926;51.348;6.596;2023-10-31T12:35:41;1.40;;;1.30;;
28774;SDS011;15926;51.348;6.596;2023-10-31T12:38:07;1.83;;;1.48;;
28774;SDS011;15926;51.348;6.596;2023-10-31T12:40:35;1.77;;;1.45;;
28774;SDS011;15926;51.348;6.596;2023-10-31T12:43:02;1.85;;;1.00;;
28774;SDS011;15926;51.348;6.596;2023-10-31T12:45:28;4.80;;;1.25;;
28774;SDS011;15926;51.348;6.596;2023-10-31T12:48:01;1.27;;;1.08;;
28774;SDS011;15926;51.348;6.596;2023-10-31T12:50:28;4.28;;;1.20;;
28774;SDS011;15926;51.348;6.596;2023-10-31T12:52:54;1.35;;;1.15;;
28774;SDS011;15926;51.348;6.596;2023-10-31T12:55:23;1.15;;;0.95;;
28774;SDS011;15926;51.348;6.596;2023-10-31T12:57:50;2.50;;;1.20;;
28774;SDS011;15926;51.348;6.596;2023-10-31T13:00:17;2.05;;;1.38;;
28774;SDS011;15926;51.348;6.596;2023-10-31T13:03:00;3.95;;;1.20;;
28774;SDS011;15926;51.348;6.596;2023-10-31T13:05:27;3.65;;;1.48;;
28774;SDS011;15926;51.348;6.596;2023-10-31T13:07:54;2.53;;;1.20;;
28774;SDS011;15926;51.348;6.596;2023-10-31T13:10:21;1.98;;;0.90;;
28774;SDS011;15926;51.348;6.596;2023-10-31T13:12:48;1.65;;;0.90;;
28774;SDS011;15926;51.348;6.596;2023-10-31T13:15:14;3.95;;;1.17;;
28774;SDS011;15926;51.348;6.596;2023-10-31T13:17:41;6.30;;;1.02;;
28774;SDS011;15926;51.348;6.596;2023-10-31T13:20:09;1.15;;;0.88;;
28774;SDS011;15926;51.348;6.596;2023-10-31T13:22:35;1.45;;;1.20;;
28774;SDS011;15926;51.348;6.596;2023-10-31T13:25:02;2.25;;;1.10;;
28774;SDS011;15926;51.348;6.596;2023-10-31T13:27:32;4.75;;;1.55;;
28774;SDS011;15926;51.348;6.596;2023-10-31T13:30:00;2.05;;;1.50;;
28774;SDS011;15926;51.348;6.596;2023-10-31T13:32:26;3.78;;;2.05;;
28774;SDS011;15926;51.348;6.596;2023-10-31T13:34:52;2.97;;;1.40;;
28774;SDS011;15926;51.348;6.596;2023-10-31T13:37:18;2.78;;;1.58;;
28774;SDS011;15926;51.348;6.596;2023-10-31T13:39:44;2.65;;;1.42;;
28774;SDS011;15926;51.348;6.596;2023-10-31T13:42:10;2.70;;;1.55;;
28774;SDS011;15926;51.348;6.596;2023-10-31T13:44:37;5.05;;;1.48;;
28774;SDS011;15926;51.348;6.596;2023-10-31T13:47:03;1.90;;;1.60;;
28774;SDS011;15926;51.348;6.596;2023-10-31T13:49:29;3.42;;;1.25;;
28774;SDS011;15926;51.348;6.596;2023-10-31T13:51:55;1.75;;;1.38;;
28774;SDS011;15926;51.348;6.596;2023-10-31T13:54:21;2.85;;;1.40;;
28774;SDS011;15926;51.348;6.596;2023-10-31T13:56:47;1.88;;;1.00;;
28774;SDS011;15926;51.348;6.596;2023-10-31T13:59:13;2.78;;;1.50;;
28774;SDS011;15926;51.348;6.596;2023-10-31T14:01:40;1.35;;;1.13;;
28774;SDS011;15926;51.348;6.596;2023-10-31T14:04:09;2.85;;;1.13;;
28774;SDS011;15926;51.348;6.596;2023-10-31T14:06:35;2.58;;;1.30;;
28774;SDS011;15926;51.348;6.596;2023-10-31T14:09:02;3.35;;;1.00;;
28774;SDS011;15926;51.348;6.596;2023-10-31T14:11:32;3.50;;;1.10;;
28774;SDS011;15926;51.348;6.596;2023-10-31T14:13:59;2.92;;;1.40;;
28774;SDS011;15926;51.348;6.596;2023-10-31T14:18:54;2.42;;;1.23;;
28774;SDS011;15926;51.348;6.596;2023-10-31T14:21:21;2.90;;;1.00;;
28774;SDS011;15926;51.348;6.596;2023-10-31T14:23:47;1.75;;;1.20;;
28774;SDS011;15926;51.348;6.596;2023-10-31T14:26:19;1.88;;;1.15;;
28774;SDS011;15926;51.348;6.596;2023-10-31T14:28:45;2.90;;;1.10;;
28774;SDS011;15926;51.348;6.596;2023-10-31T14:31:11;4.30;;;1.05;;
28774;SDS011;15926;51.348;6.596;2023-10-31T14:33:37;3.15;;;1.30;;
28774;SDS011;15926;51.348;6.596;2023-10-31T14:36:03;1.48;;;1.10;;
28774;SDS011;15926;51.348;6.596;2023-10-31T14:38:29;2.30;;;1.08;;
28774;SDS011;15926;51.348;6.596;2023-10-31T14:40:55;2.47;;;0.90;;
28774;SDS011;15926;51.348;6.596;2023-10-31T14:43:21;1.30;;;0.85;;
28774;SDS011;15926;51.348;6.596;2023-10-31T14:45:47;3.70;;;1.63;;
28774;SDS011;15926;51.348;6.596;2023-10-31T14:48:13;3.22;;;1.00;;
28774;SDS011;15926;51.348;6.596;2023-10-31T14:50:39;1.48;;;1.17;;
28774;SDS011;15926;51.348;6.596;2023-10-31T14:53:06;4.70;;;1.10;;
28774;SDS011;15926;51.348;6.596;2023-10-31T14:55:34;2.70;;;0.93;;
28774;SDS011;15926;51.348;6.596;2023-10-31T14:58:00;3.42;;;1.58;;
28774;SDS011;15926;51.348;6.596;2023-10-31T15:00:26;3.60;;;1.10;;
28774;SDS011;15926;51.348;6.596;2023-10-31T15:02:52;3.38;;;1.25;;
28774;SDS011;15926;51.348;6.596;2023-10-31T15:05:18;5.35;;;1.25;;
28774;SDS011;15926;51.348;6.596;2023-10-31T15:07:44;2.50;;;1.05;;
28774;SDS011;15926;51.348;6.596;2023-10-31T15:10:10;3.47;;;1.00;;
28774;SDS011;15926;51.348;6.596;2023-10-31T15:12:37;4.10;;;1.17;;
28774;SDS011;15926;51.348;6.596;2023-10-31T15:15:03;2.58;;;1.40;;
28774;SDS011;15926;51.348;6.596;2023-10-31T15:17:29;2.72;;;0.90;;
28774;SDS011;15926;51.348;6.596;2023-10-31T15:19:55;3.58;;;1.30;;
28774;SDS011;15926;51.348;6.596;2023-10-31T15:22:21;3.92;;;1.00;;
28774;SDS011;15926;51.348;6.596;2023-10-31T15:24:47;3.58;;;1.42;;
28774;SDS011;15926;51.348;6.596;2023-10-31T15:27:13;6.07;;;1.30;;
28774;SDS011;15926;51.348;6.596;2023-10-31T15:29:42;5.85;;;1.25;;
28774;SDS011;15926;51.348;6.596;2023-10-31T15:32:08;4.00;;;0.98;;
28774;SDS011;15926;51.348;6.596;2023-10-31T15:34:34;2.72;;;1.00;;
28774;SDS011;15926;51.348;6.596;2023-10-31T15:37:04;3.85;;;1.52;;
28774;SDS011;15926;51.348;6.596;2023-10-31T15:39:30;4.40;;;1.15;;
28774;SDS011;15926;51.348;6.596;2023-10-31T15:41:56;3.20;;;1.15;;
28774;SDS011;15926;51.348;6.596;2023-10-31T15:44:23;3.95;;;1.60;;
28774;SDS011;15926;51.348;6.596;2023-10-31T15:46:49;2.13;;;1.08;;
28774;SDS011;15926;51.348;6.596;2023-10-31T15:49:15;5.32;;;1.33;;
28774;SDS011;15926;51.348;6.596;2023-10-31T15:51:42;5.38;;;1.42;;
28774;SDS011;15926;51.348;6.596;2023-10-31T15:54:08;4.95;;;1.70;;
28774;SDS011;15926;51.348;6.596;2023-10-31T15:56:34;2.00;;;1.40;;
28774;SDS011;15926;51.348;6.596;2023-10-31T15:59:00;2.97;;;1.70;;
28774;SDS011;15926;51.348;6.596;2023-10-31T16:01:27;2.15;;;1.10;;
28774;SDS011;15926;51.348;6.596;2023-10-31T16:03:53;1.90;;;1.40;;
28774;SDS011;15926;51.348;6.596;2023-10-31T16:06:19;2.47;;;1.05;;
28774;SDS011;15926;51.348;6.596;2023-10-31T16:08:45;3.95;;;1.67;;
28774;SDS011;15926;51.348;6.596;2023-10-31T16:11:11;3.85;;;1.48;;
28774;SDS011;15926;51.348;6.596;2023-10-31T16:13:37;5.35;;;1.30;;
28774;SDS011;15926;51.348;6.596;2023-10-31T16:16:08;2.90;;;1.60;;
28774;SDS011;15926;51.348;6.596;2023-10-31T16:18:37;3.08;;;1.80;;
28774;SDS011;15926;51.348;6.596;2023-10-31T16:21:15;2.95;;;2.40;;
28774;SDS011;15926;51.348;6.596;2023-10-31T16:23:41;7.05;;;1.88;;
28774;SDS011;15926;51.348;6.596;2023-10-31T16:26:07;2.63;;;1.92;;
28774;SDS011;15926;51.348;6.596;2023-10-31T16:28:33;3.95;;;2.00;;
28774;SDS011;15926;51.348;6.596;2023-10-31T16:30:59;7.43;;;2.40;;
28774;SDS011;15926;51.348;6.596;2023-10-31T16:33:26;2.15;;;1.83;;
28774;SDS011;15926;51.348;6.596;2023-10-31T16:35:52;4.13;;;1.95;;
28774;SDS011;15926;51.348;6.596;2023-10-31T16:38:18;3.63;;;1.92;;
28774;SDS011;15926;51.348;6.596;2023-10-31T16:40:44;4.55;;;2.70;;
28774;SDS011;15926;51.348;6.596;2023-10-31T16:43:11;4.18;;;2.20;;
28774;SDS011;15926;51.348;6.596;2023-10-31T16:45:37;3.88;;;2.10;;
28774;SDS011;15926;51.348;6.596;2023-10-31T16:48:03;3.30;;;2.08;;
28774;SDS011;15926;51.348;6.596;2023-10-31T16:50:30;5.32;;;2.75;;
28774;SDS011;15926;51.348;6.596;2023-10-31T16:52:57;4.03;;;2.30;;
28774;SDS011;15926;51.348;6.596;2023-10-31T16:55:23;3.15;;;2.30;;
28774;SDS011;15926;51.348;6.596;2023-10-31T16:57:50;5.00;;;2.50;;
28774;SDS011;15926;51.348;6.596;2023-10-31T17:00:16;3.97;;;2.35;;
28774;SDS011;15926;51.348;6.596;2023-10-31T17:02:42;2.88;;;2.35;;
28774;SDS011;15926;51.348;6.596;2023-10-31T17:05:08;3.08;;;2.25;;
28774;SDS011;15926;51.348;6.596;2023-10-31T17:07:34;4.68;;;2.63;;
28774;SDS011;15926;51.348;6.596;2023-10-31T17:10:00;5.13;;;2.78;;
28774;SDS011;15926;51.348;6.596;2023-10-31T17:12:27;5.20;;;3.05;;
28774;SDS011;15926;51.348;6.596;2023-10-31T17:14:53;6.78;;;2.70;;
28774;SDS011;15926;51.348;6.596;2023-10-31T17:17:19;6.30;;;2.88;;
28774;SDS011;15926;51.348;6.596;2023-10-31T17:19:45;4.45;;;3.10;;
28774;SDS011;15926;51.348;6.596;2023-10-31T17:22:11;3.85;;;3.58;;
28774;SDS011;15926;51.348;6.596;2023-10-31T17:24:37;3.47;;;2.72;;
28774;SDS011;15926;51.348;6.596;2023-10-31T17:27:03;5.43;;;3.00;;
28774;SDS011;15926;51.348;6.596;2023-10-31T17:29:29;3.50;;;3.03;;
28774;SDS011;15926;51.348;6.596;2023-10-31T17:31:55;3.83;;;3.35;;
28774;SDS011;15926;51.348;6.596;2023-10-31T17:34:21;3.67;;;3.38;;
28774;SDS011;15926;51.348;6.596;2023-10-31T17:36:47;4.97;;;3.58;;
28774;SDS011;15926;51.348;6.596;2023-10-31T17:39:13;4.65;;;3.40;;
28774;SDS011;15926;51.348;6.596;2023-10-31T17:41:39;7.15;;;4.28;;
28774;SDS011;15926;51.348;6.596;2023-10-31T17:44:06;4.75;;;3.55;;
28774;SDS011;15926;51.348;6.596;2023-10-31T17:46:32;4.15;;;3.85;;
28774;SDS011;15926;51.348;6.596;2023-10-31T17:48:58;3.63;;;3.30;;
28774;SDS011;15926;51.348;6.596;2023-10-31T17:51:24;4.05;;;3.63;;
28774;SDS011;15926;51.348;6.596;2023-10-31T17:53:50;6.03;;;3.80;;
28774;SDS011;15926;51.348;6.596;2023-10-31T17:56:17;4.97;;;3.30;;
28774;SDS011;15926;51.348;6.596;2023-10-31T17:58:43;4.40;;;3.55;;
28774;SDS011;15926;51.348;6.596;2023-10-31T18:01:09;6.95;;;3.50;;
28774;SDS011;15926;51.348;6.596;2023-10-31T18:03:35;7.22;;;4.38;;
28774;SDS011;15926;51.348;6.596;2023-10-31T18:06:01;6.50;;;3.88;;
28774;SDS011;15926;51.348;6.596;2023-10-31T18:08:27;3.85;;;3.30;;
28774;SDS011;15926;51.348;6.596;2023-10-31T18:10:54;4.47;;;3.70;;
28774;SDS011;15926;51.348;6.596;2023-10-31T18:13:20;4.22;;;3.80;;
28774;SDS011;15926;51.348;6.596;2023-10-31T18:15:46;4.63;;;3.97;;
28774;SDS011;15926;51.348;6.596;2023-10-31T18:18:12;4.72;;;3.88;;
28774;SDS011;15926;51.348;6.596;2023-10-31T18:20:38;6.85;;;4.05;;
28774;SDS011;15926;51.348;6.596;2023-10-31T18:23:04;6.00;;;3.83;;
28774;SDS011;15926;51.348;6.596;2023-10-31T18:25:30;5.47;;;3.80;;
28774;SDS011;15926;51.348;6.596;2023-10-31T18:27:56;4.25;;;3.90;;
28774;SDS011;15926;51.348;6.596;2023-10-31T18:30:23;7.35;;;4.10;;
28774;SDS011;15926;51.348;6.596;2023-10-31T18:32:49;10.00;;;4.47;;
28774;SDS011;15926;51.348;6.596;2023-10-31T18:35:15;6.85;;;5.10;;
28774;SDS011;15926;51.348;6.596;2023-10-31T18:37:41;6.78;;;5.18;;
28774;SDS011;15926;51.348;6.596;2023-10-31T18:40:07;6.10;;;5.00;;
28774;SDS011;15926;51.348;6.596;2023-10-31T18:42:33;5.18;;;4.75;;
28774;SDS011;15926;51.348;6.596;2023-10-31T18:44:59;7.95;;;4.57;;
28774;SDS011;15926;51.348;6.596;2023-10-31T18:47:25;8.32;;;5.03;;
28774;SDS011;15926;51.348;6.596;2023-10-31T18:49:52;9.35;;;6.03;;
28774;SDS011;15926;51.348;6.596;2023-10-31T18:52:18;5.97;;;5.25;;
28774;SDS011;15926;51.348;6.596;2023-10-31T18:54:44;7.55;;;5.95;;
28774;SDS011;15926;51.348;6.596;2023-10-31T18:57:10;7.05;;;4.90;;
28774;SDS011;15926;51.348;6.596;2023-10-31T18:59:36;6.50;;;5.00;;
28774;SDS011;15926;51.348;6.596;2023-10-31T19:02:02;6.57;;;5.32;;
28774;SDS011;15926;51.348;6.596;2023-10-31T19:04:28;6.72;;;4.53;;
28774;SDS011;15926;51.348;6.596;2023-10-31T19:06:54;9.43;;;4.78;;
28774;SDS011;15926;51.348;6.596;2023-10-31T19:09:21;8.60;;;4.57;;
28774;SDS011;15926;51.348;6.596;2023-10-31T19:11:47;5.03;;;4.53;;
28774;SDS011;15926;51.348;6.596;2023-10-31T19:14:13;5.40;;;4.38;;
28774;SDS011;15926;51.348;6.596;2023-10-31T19:16:39;9.02;;;4.25;;
28774;SDS011;15926;51.348;6.596;2023-10-31T19:19:05;8.38;;;5.20;;
28774;SDS011;15926;51.348;6.596;2023-10-31T19:21:31;7.40;;;4.68;;
28774;SDS011;15926;51.348;6.596;2023-10-31T19:23:58;10.50;;;5.07;;
28774;SDS011;15926;51.348;6.596;2023-10-31T19:26:24;5.35;;;4.30;;
28774;SDS011;15926;51.348;6.596;2023-10-31T19:28:50;6.28;;;4.85;;
28774;SDS011;15926;51.348;6.596;2023-10-31T19:31:16;6.50;;;4.68;;
28774;SDS011;15926;51.348;6.596;2023-10-31T19:33:42;7.47;;;4.55;;
28774;SDS011;15926;51.348;6.596;2023-10-31T19:36:09;9.52;;;4.65;;
28774;SDS011;15926;51.348;6.596;2023-10-31T19:38:35;8.25;;;4.47;;
28774;SDS011;15926;51.348;6.596;2023-10-31T19:41:01;7.63;;;5.30;;
28774;SDS011;15926;51.348;6.596;2023-10-31T19:43:27;8.55;;;5.22;;
28774;SDS011;15926;51.348;6.596;2023-10-31T19:46:00;8.48;;;5.15;;
28774;SDS011;15926;51.348;6.596;2023-10-31T19:48:26;6.25;;;4.72;;
28774;SDS011;15926;51.348;6.596;2023-10-31T19:50:52;11.05;;;4.93;;
28774;SDS011;15926;51.348;6.596;2023-10-31T19:53:18;5.95;;;4.80;;